PST,Max TemperatureF,Mean TemperatureF,Min TemperatureF,Max Dew PointF,MeanDew PointF,Min DewpointF,Max Humidity, Mean Humidity, Min Humidity, Max Sea Level PressureIn, Mean Sea Level PressureIn, Min Sea Level PressureIn, Max VisibilityMiles, Mean VisibilityMiles, Min VisibilityMiles, Max Wind SpeedMPH, Mean Wind SpeedMPH, Max Gust SpeedMPH,PrecipitationIn, CloudCover, Events, WindDirDegrees
2014-1-1,63,44,25,36,31,25,100,66,32,30.20,30.15,30.11,10,9,5,7,2,12,0.00,0,,294
2014-1-2,67,49,31,38,33,28,89,61,32,30.17,30.10,30.03,10,10,10,13,4,16,0.00,0,,36
2014-1-3,66,49,32,40,35,30,92,63,34,30.06,29.99,29.93,10,10,10,8,2,9,0.00,0,,151
2014-1-4,67,48,29,41,33,26,100,63,26,30.06,30.00,29.97,10,9,5,9,2,29,0.00,0,,231
2014-1-5,70,47,24,34,22,7,92,50,8,30.19,30.13,30.06,10,10,10,17,5,23,0.00,0,,92
2014-1-6,60,47,33,36,28,19,76,51,26,30.27,30.20,30.14,10,10,10,17,5,23,0.00,0,,69
2014-1-7,59,47,34,50,36,28,100,69,38,30.19,30.15,30.11,10,10,5,15,4,17,0.00,2,,247
2014-1-8,58,46,34,49,43,34,100,86,72,30.24,30.18,30.12,10,4,0,12,3,24,0.00,4,Fog,153
2014-1-9,62,50,38,48,42,37,100,80,60,30.23,30.19,30.15,10,6,0,20,5,24,0.00,3,Fog,300
2014-1-10,61,46,31,44,39,31,100,76,51,30.29,30.21,30.15,10,10,10,9,2,10,0.00,0,,204
2014-1-11,56,46,36,52,45,37,100,92,83,30.28,30.20,30.12,10,9,0,16,6,28,T,5,Fog,214
2014-1-12,64,49,33,44,37,28,100,64,27,30.38,30.30,30.25,10,4,0,23,5,28,0.00,3,Fog,359
2014-1-13,66,50,34,39,36,32,86,60,34,30.44,30.37,30.32,10,10,10,17,6,25,0.00,0,,100
2014-1-14,68,46,24,39,32,25,100,65,29,30.45,30.37,30.31,10,10,2,15,4,18,0.00,0,,57
2014-1-15,70,50,30,38,32,27,92,56,20,30.33,30.25,30.18,10,10,9,23,9,51,0.00,0,,70
2014-1-16,70,50,30,37,30,26,100,60,20,30.22,30.15,30.10,10,10,10,22,6,28,0.00,0,,69
2014-1-17,71,51,30,38,32,26,89,57,25,30.18,30.13,30.09,10,10,7,20,6,25,0.00,0,,54
2014-1-18,70,49,27,31,29,26,89,55,20,30.16,30.09,30.04,10,10,10,13,4,16,0.00,0,,27
2014-1-19,70,50,29,34,30,26,92,57,22,30.13,30.08,30.03,10,10,10,15,5,20,0.00,0,,69
2014-1-20,71,50,28,33,29,25,85,53,20,30.22,30.15,30.10,10,10,10,13,4,15,0.00,0,,51
2014-1-21,65,46,27,32,28,25,92,59,26,30.26,30.19,30.14,10,10,10,7,2,9,0.00,0,,347
2014-1-22,68,48,27,32,27,23,92,56,19,30.14,30.02,29.90,10,10,10,8,1,10,0.00,0,,208
2014-1-23,73,51,29,34,28,18,92,53,13,30.00,29.90,29.84,10,9,6,20,7,22,0.00,0,,86
2014-1-24,67,52,37,44,36,29,79,58,37,30.25,30.13,29.99,10,9,6,16,3,20,0.00,1,,194
2014-1-25,70,52,34,38,33,29,85,55,25,30.25,30.17,30.10,10,10,10,9,2,10,0.00,0,,212
2014-1-26,69,52,34,45,35,30,100,65,29,30.12,30.06,30.01,10,10,3,9,2,12,0.00,0,,182
2014-1-27,58,47,35,50,44,37,100,84,67,30.20,30.12,30.04,10,4,0,9,2,12,0.00,5,Fog,197
2014-1-28,68,57,46,57,53,47,100,84,67,30.24,30.19,30.15,10,10,9,16,5,20,0.00,6,,250
2014-1-29,59,55,50,57,54,46,100,92,83,30.19,30.10,29.96,10,9,1,28,6,31,0.01,7,Rain,228
2014-1-30,63,56,48,52,48,42,100,74,48,29.95,29.87,29.81,10,9,2,14,5,,0.05,5,Fog-Rain,238
2014-1-31,64,48,31,41,31,19,89,55,20,30.06,30.02,29.97,10,10,10,21,4,24,0.02,0,,240